Bulk Phoenix — 3FQD9 — position and weather

sailwx.info

Track history (hours):
 
Tides and Currents Weather Stations Pressure Air Temp Water Temp Dewpoint Dewpoint Depression Visibility Wind Speed Wind Dir Waves Ship Positions

Bulk Phoenix

Last reported at 2018-Jan-12 14:59 UTC. Time now 2018-Feb-19 06:04 UTC.
Position N 24°25' E 118°03'.
Warning: this ship's position is 37 days out of date.

Length 190 m; draft 8.8 m.

Type: Cargo ship. MMSI: 370699000.

Date/timePositionNaut miles runAvg speedWind from/ knotsBaromVisibWave heightAir tempDewpointWater temp
2018-Jan-12 14:59N 24°25' E 118°03'0 0.0
2018-Jan-12 14:29N 24°25' E 118°03'0 0.0
2018-Jan-12 13:59N 24°25' E 118°03'0 0.0
2018-Jan-12 13:29N 24°25' E 118°03'0 0.0
2018-Jan-12 12:59N 24°25' E 118°03'0 0.0
2018-Jan-12 12:29N 24°25' E 118°03'0 0.0
2018-Jan-12 11:59N 24°25' E 118°03'0 0.0
2018-Jan-12 11:29N 24°25' E 118°03'0 0.0
2018-Jan-12 10:59N 24°25' E 118°03'0 0.0
2018-Jan-12 10:26N 24°25' E 118°03'0 0.0
2018-Jan-12 09:59N 24°25' E 118°03'0 0.0
2018-Jan-12 09:29N 24°25' E 118°03'0 0.0
2018-Jan-12 08:59N 24°25' E 118°03'0 0.0
2018-Jan-12 08:29N 24°25' E 118°03'0 0.0
2018-Jan-12 07:59N 24°25' E 118°03'0 0.0
2018-Jan-12 07:29N 24°25' E 118°03'0 0.0
2018-Jan-12 06:59N 24°25' E 118°03'0 0.0
2018-Jan-12 06:29N 24°25' E 118°03'0 0.0
2018-Jan-12 05:59N 24°25' E 118°03'0 0.0
2018-Jan-12 05:30N 24°25' E 118°03'2 4.1
2018-Jan-12 05:00N 24°25' E 118°05'5 9.2
2018-Jan-12 04:30N 24°21' E 118°09'4 7.9
2018-Jan-12 04:00N 24°19' E 118°12'5 9.1
2018-Jan-12 03:30N 24°15' E 118°15'510.9
2018-Jan-12 03:00N 24°11' E 118°19'510.6
2018-Jan-12 02:30N 24°07' E 118°23'510.9
2018-Jan-12 02:00N 24°04' E 118°28'2 3.6
2018-Jan-12 01:28N 24°02' E 118°29'0 0.0
2018-Jan-11 17:52N 24°02' E 118°29'0 0.0
2018-Jan-11 17:22N 24°02' E 118°29'0 0.0
2018-Jan-11 16:40N 24°02' E 118°29'0 0.0
2018-Jan-11 16:25N 24°02' E 118°29'0 0.0
2018-Jan-11 13:10N 24°02' E 118°29'0 0.0
2018-Jan-11 12:58N 24°02' E 118°29'0 0.0
2018-Jan-11 12:28N 24°02' E 118°29'0 0.0
2018-Jan-11 11:52N 24°02' E 118°29'0 0.0
2018-Jan-11 11:16N 24°02' E 118°29'0 0.2
2018-Jan-11 10:58N 24°02' E 118°29'0 0.0
2018-Jan-11 10:28N 24°02' E 118°29'0 0.0
2018-Jan-11 09:49N 24°02' E 118°29'0 0.1
2018-Jan-11 09:22N 24°02' E 118°29'0 0.1
2018-Jan-11 08:31N 24°02' E 118°29'0 0.6
2018-Jan-11 08:28N 24°02' E 118°29'0 0.1
2018-Jan-11 07:52N 24°03' E 118°29'0 0.3
2018-Jan-11 07:28N 24°02' E 118°29'0 0.1
2018-Jan-11 06:04N 24°03' E 118°29'0 2.5
2018-Jan-11 05:59N 24°03' E 118°29'5 9.7
2018-Jan-11 05:30N 24°05' E 118°25'611.6
2018-Jan-11 05:00N 24°09' E 118°20'612.7
2018-Jan-11 04:30N 24°14' E 118°16'713.3
2018-Jan-11 04:01N 24°19' E 118°11'612.7
2018-Jan-11 03:31N 24°24' E 118°07'510.6
2018-Jan-11 03:00N 24°26' E 118°01'0 0.5
2018-Jan-11 02:28N 24°27' E 118°01'0 0.0
2018-Jan-11 01:55N 24°27' E 118°01'0 0.0
2018-Jan-11 01:25N 24°27' E 118°01'0 0.0
2018-Jan-11 00:55N 24°27' E 118°01'0 0.1
2018-Jan-11 00:25N 24°27' E 118°01'0 0.1
2018-Jan-10 23:55N 24°27' E 118°01'0 0.1
2018-Jan-10 23:25N 24°27' E 118°01'0 0.1
2018-Jan-10 22:55N 24°27' E 118°01'0 0.0
2018-Jan-10 22:25N 24°27' E 118°01'0 0.0
2018-Jan-10 21:55N 24°27' E 118°01'0 0.0
2018-Jan-10 21:25N 24°27' E 118°01'0 0.1
2018-Jan-10 20:55N 24°27' E 118°01'0 0.1
2018-Jan-10 20:25N 24°27' E 118°01'0 0.0
2018-Jan-10 19:55N 24°27' E 118°01'0 0.0
2018-Jan-10 19:25N 24°27' E 118°01'0 0.0
2018-Jan-10 18:55N 24°27' E 118°01'0 0.1
2018-Jan-10 18:25N 24°27' E 118°01'0 0.0
2018-Jan-10 17:55N 24°27' E 118°01'0 0.0
2018-Jan-10 17:25N 24°27' E 118°01'0 0.0
2018-Jan-10 16:55N 24°27' E 118°01'0 0.1
2018-Jan-10 16:25N 24°27' E 118°01'0 0.1
2018-Jan-10 15:49N 24°27' E 118°01'0 0.0
2018-Jan-10 15:25N 24°27' E 118°01'0 0.0
2018-Jan-10 14:55N 24°27' E 118°01'0 0.0
2018-Jan-10 14:25N 24°27' E 118°01'0 0.1
2018-Jan-10 13:55N 24°27' E 118°01'0 0.1
2018-Jan-10 13:25N 24°27' E 118°01'0 0.0
2018-Jan-10 12:55N 24°27' E 118°01'0 0.1
2018-Jan-10 12:25N 24°27' E 118°01'0 0.0
2018-Jan-10 11:55N 24°27' E 118°01'0 0.0
2018-Jan-10 11:25N 24°27' E 118°01'0 0.1
2018-Jan-10 10:55N 24°27' E 118°01'0 0.0
2018-Jan-10 10:25N 24°27' E 118°01'0 0.0
2018-Jan-10 09:55N 24°27' E 118°01'0 0.0
2018-Jan-10 09:25N 24°27' E 118°01'0 0.0
2018-Jan-10 08:55N 24°27' E 118°01'0 0.1
2018-Jan-10 08:07N 24°27' E 118°01'0 0.3
2018-Jan-10 07:55N 24°27' E 118°01'0 0.0
2018-Jan-10 07:25N 24°27' E 118°01'0 0.1
2018-Jan-10 06:55N 24°27' E 118°01'0 0.1
2018-Jan-10 06:25N 24°27' E 118°01'0 0.0
2018-Jan-10 05:55N 24°27' E 118°01'0 0.0
2018-Jan-10 05:25N 24°27' E 118°01'0 0.1
2018-Jan-10 04:55N 24°27' E 118°01'0 0.1
2018-Jan-10 04:25N 24°27' E 118°01'0 0.0
2018-Jan-10 03:55N 24°27' E 118°01'0 0.1
2018-Jan-10 03:25N 24°27' E 118°01'0 0.0
2018-Jan-10 02:55N 24°27' E 118°01'0 0.0
2018-Jan-10 02:25N 24°27' E 118°01'0 0.1
2018-Jan-10 01:55N 24°27' E 118°01'0 0.1
2018-Jan-10 01:25N 24°27' E 118°01'0 0.0
2018-Jan-10 00:55N 24°27' E 118°01'0 0.0
2018-Jan-10 00:25N 24°27' E 118°01'0 0.1
2018-Jan-09 23:55N 24°27' E 118°01'0 0.0
2018-Jan-09 23:19N 24°27' E 118°01'0 0.1
2018-Jan-09 22:49N 24°27' E 118°01'0 0.0
2018-Jan-09 22:25N 24°27' E 118°01'0 0.0
2018-Jan-09 21:55N 24°27' E 118°01'0 0.0
2018-Jan-09 21:25N 24°27' E 118°01'0 0.0
2018-Jan-09 20:55N 24°27' E 118°01'0 0.1
2018-Jan-09 20:19N 24°27' E 118°01'0 0.0
2018-Jan-09 19:55N 24°27' E 118°01'0 0.0
2018-Jan-09 19:25N 24°27' E 118°01'0 0.0
2018-Jan-09 18:55N 24°27' E 118°01'0 0.1
2018-Jan-09 18:25N 24°27' E 118°01'0 0.0
2018-Jan-09 17:55N 24°27' E 118°01'0 0.1
2018-Jan-09 17:25N 24°27' E 118°01'0 0.0
2018-Jan-09 16:55N 24°27' E 118°01'0 0.1
2018-Jan-09 16:25N 24°27' E 118°01'0 0.0
2018-Jan-09 15:55N 24°27' E 118°01'0 0.1
2018-Jan-09 15:25N 24°27' E 118°01'0 0.1
2018-Jan-09 14:55N 24°27' E 118°01'0 0.1
2018-Jan-09 14:25N 24°27' E 118°01'0 0.1
2018-Jan-09 13:31N 24°27' E 118°01'0 0.5
2018-Jan-09 13:25N 24°27' E 118°01'0 0.1
2018-Jan-09 12:55N 24°27' E 118°01'0 0.0
2018-Jan-09 12:25N 24°27' E 118°01'0 0.1
2018-Jan-09 11:55N 24°27' E 118°01'0 0.0
2018-Jan-09 11:28N 24°27' E 118°01'0 0.1
2018-Jan-09 10:55N 24°27' E 118°01'0 0.0
2018-Jan-09 10:25N 24°27' E 118°01'0 0.0
2018-Jan-09 09:55N 24°27' E 118°01'0 0.0
2018-Jan-09 09:25N 24°27' E 118°01'0 0.1
2018-Jan-09 08:55N 24°27' E 118°01'0 0.0
2018-Jan-09 08:25N 24°27' E 118°01'0 0.0
2018-Jan-09 07:55N 24°27' E 118°01'0 0.0
2018-Jan-09 07:25N 24°27' E 118°01'0 0.0
2018-Jan-09 06:55N 24°27' E 118°01'0 0.0
2018-Jan-09 06:25N 24°27' E 118°01'0 0.0
2018-Jan-09 05:55N 24°27' E 118°01'0 0.0
2018-Jan-09 05:25N 24°27' E 118°01'0 0.0
2018-Jan-09 04:55N 24°27' E 118°01'0 0.0
2018-Jan-09 04:25N 24°27' E 118°01'0 0.0
2018-Jan-09 03:55N 24°27' E 118°01'0 0.0
2018-Jan-09 03:25N 24°27' E 118°01'0 0.0
2018-Jan-09 02:55N 24°27' E 118°01'0 0.1
2018-Jan-09 02:25N 24°27' E 118°01'0 0.1
2018-Jan-09 01:55N 24°27' E 118°01'0 0.0
2018-Jan-09 01:25N 24°27' E 118°01'0 0.0
2018-Jan-09 00:55N 24°27' E 118°01'0 0.1
2018-Jan-09 00:25N 24°27' E 118°01'0 0.1
2018-Jan-08 23:55N 24°27' E 118°01'0 0.1
2018-Jan-08 23:28N 24°27' E 118°01'0 0.0
2018-Jan-08 22:55N 24°27' E 118°01'0 0.1
2018-Jan-08 22:28N 24°27' E 118°01'0 0.0
2018-Jan-08 21:55N 24°27' E 118°01'0 0.1
2018-Jan-08 21:25N 24°27' E 118°01'0 0.1
2018-Jan-08 20:55N 24°27' E 118°01'0 0.1
2018-Jan-08 20:25N 24°27' E 118°01'0 0.1
2018-Jan-08 19:55N 24°27' E 118°01'0 0.1
2018-Jan-08 19:25N 24°27' E 118°01'0 0.0
2018-Jan-08 18:55N 24°27' E 118°01'0 0.1
2018-Jan-08 18:25N 24°27' E 118°01'0 0.0
2018-Jan-08 17:55N 24°27' E 118°01'0 0.0
2018-Jan-08 17:25N 24°27' E 118°01'0 0.0
2018-Jan-08 16:55N 24°27' E 118°01'0 0.1
2018-Jan-08 16:25N 24°27' E 118°01'0 0.0
2018-Jan-08 15:55N 24°27' E 118°01'0 0.1
2018-Jan-08 15:25N 24°27' E 118°01'0 0.0
2018-Jan-08 14:55N 24°27' E 118°01'0 0.0
2018-Jan-08 14:25N 24°27' E 118°01'0 0.1
2018-Jan-08 13:55N 24°27' E 118°01'0 0.0
2018-Jan-08 13:25N 24°27' E 118°01'0 0.0
2018-Jan-08 12:55N 24°27' E 118°01'0 0.1
2018-Jan-08 12:25N 24°27' E 118°01'0 0.1
2018-Jan-08 11:55N 24°27' E 118°01'0 0.1
2018-Jan-08 11:25N 24°27' E 118°01'0 0.0
2018-Jan-08 10:55N 24°27' E 118°01'0 0.1
2018-Jan-08 10:25N 24°27' E 118°01'0 0.1
2018-Jan-08 09:55N 24°27' E 118°01'0 0.1
2018-Jan-08 09:26N 24°27' E 118°01'1 2.0
2018-Jan-08 09:00N 24°26' E 118°02'4 7.5
2018-Jan-08 08:31N 24°24' E 118°06'4 8.2
2018-Jan-08 08:01N 24°22' E 118°09'3 5.3
2018-Jan-08 07:31N 24°20' E 118°11'4 7.3
2018-Jan-08 07:00N 24°17' E 118°14'3 5.3
2018-Jan-08 06:31N 24°15' E 118°15'4 7.2
2018-Jan-08 06:00N 24°11' E 118°15'2 3.7
2018-Jan-08 05:25N 24°09' E 118°16'0 0.0
2018-Jan-08 04:58N 24°09' E 118°16'0 0.1
2018-Jan-08 04:28N 24°09' E 118°16'0 0.0
2018-Jan-08 03:58N 24°09' E 118°16'0 0.1
2018-Jan-08 03:28N 24°09' E 118°16'0 0.1
2018-Jan-08 02:58N 24°09' E 118°16'0 0.1
2018-Jan-08 02:28N 24°09' E 118°16'0 0.1
2018-Jan-08 01:58N 24°09' E 118°16'0 0.1
2018-Jan-08 01:28N 24°09' E 118°16'0 0.1
2018-Jan-08 00:55N 24°09' E 118°16'0 0.0
2018-Jan-08 00:28N 24°09' E 118°16'0 0.2
2018-Jan-07 23:58N 24°09' E 118°16'1 2.8
2018-Jan-07 23:31N 24°10' E 118°15'1 1.3
2018-Jan-07 23:00N 24°11' E 118°16'1 2.8
2018-Jan-07 22:29N 24°09' E 118°16'0 0.1
2018-Jan-07 21:59N 24°09' E 118°16'0 0.0
2018-Jan-07 21:29N 24°09' E 118°16'0 0.2
2018-Jan-07 20:59N 24°09' E 118°16'0 0.7
2018-Jan-07 20:30N 24°10' E 118°16'1 2.2
2018-Jan-07 20:00N 24°10' E 118°17'510.1
2018-Jan-07 19:30N 24°05' E 118°19'611.5
2018-Jan-07 19:00N 23°60' E 118°18'  
Track history (hours):
 
Tides and Currents Weather Stations Pressure Air Temp Water Temp Dewpoint Dewpoint Depression Visibility Wind Speed Wind Dir Waves Ship Positions

Bulk Phoenix

Last reported at 2018-Jan-12 14:59 UTC. Time now 2018-Feb-19 06:04 UTC.
Position N 24°25' E 118°03'.
Warning: this ship's position is 37 days out of date.

Length 190 m; draft 8.8 m.

Type: Cargo ship. MMSI: 370699000.

Date/timePositionNaut miles runAvg speedWind from/ knotsBaromVisibWave heightAir tempDewpointWater temp
2018-Jan-12 14:59N 24°25' E 118°03'0 0.0
2018-Jan-12 14:29N 24°25' E 118°03'0 0.0
2018-Jan-12 13:59N 24°25' E 118°03'0 0.0
2018-Jan-12 13:29N 24°25' E 118°03'0 0.0
2018-Jan-12 12:59N 24°25' E 118°03'0 0.0
2018-Jan-12 12:29N 24°25' E 118°03'0 0.0
2018-Jan-12 11:59N 24°25' E 118°03'0 0.0
2018-Jan-12 11:29N 24°25' E 118°03'0 0.0
2018-Jan-12 10:59N 24°25' E 118°03'0 0.0
2018-Jan-12 10:26N 24°25' E 118°03'0 0.0
2018-Jan-12 09:59N 24°25' E 118°03'0 0.0
2018-Jan-12 09:29N 24°25' E 118°03'0 0.0
2018-Jan-12 08:59N 24°25' E 118°03'0 0.0
2018-Jan-12 08:29N 24°25' E 118°03'0 0.0
2018-Jan-12 07:59N 24°25' E 118°03'0 0.0
2018-Jan-12 07:29N 24°25' E 118°03'0 0.0
2018-Jan-12 06:59N 24°25' E 118°03'0 0.0
2018-Jan-12 06:29N 24°25' E 118°03'0 0.0
2018-Jan-12 05:59N 24°25' E 118°03'0 0.0
2018-Jan-12 05:30N 24°25' E 118°03'2 4.1
2018-Jan-12 05:00N 24°25' E 118°05'5 9.2
2018-Jan-12 04:30N 24°21' E 118°09'4 7.9
2018-Jan-12 04:00N 24°19' E 118°12'5 9.1
2018-Jan-12 03:30N 24°15' E 118°15'510.9
2018-Jan-12 03:00N 24°11' E 118°19'510.6
2018-Jan-12 02:30N 24°07' E 118°23'510.9
2018-Jan-12 02:00N 24°04' E 118°28'2 3.6
2018-Jan-12 01:28N 24°02' E 118°29'0 0.0
2018-Jan-11 17:52N 24°02' E 118°29'0 0.0
2018-Jan-11 17:22N 24°02' E 118°29'0 0.0
2018-Jan-11 16:40N 24°02' E 118°29'0 0.0
2018-Jan-11 16:25N 24°02' E 118°29'0 0.0
2018-Jan-11 13:10N 24°02' E 118°29'0 0.0
2018-Jan-11 12:58N 24°02' E 118°29'0 0.0
2018-Jan-11 12:28N 24°02' E 118°29'0 0.0
2018-Jan-11 11:52N 24°02' E 118°29'0 0.0
2018-Jan-11 11:16N 24°02' E 118°29'0 0.2
2018-Jan-11 10:58N 24°02' E 118°29'0 0.0
2018-Jan-11 10:28N 24°02' E 118°29'0 0.0
2018-Jan-11 09:49N 24°02' E 118°29'0 0.1
2018-Jan-11 09:22N 24°02' E 118°29'0 0.1
2018-Jan-11 08:31N 24°02' E 118°29'0 0.6
2018-Jan-11 08:28N 24°02' E 118°29'0 0.1
2018-Jan-11 07:52N 24°03' E 118°29'0 0.3
2018-Jan-11 07:28N 24°02' E 118°29'0 0.1
2018-Jan-11 06:04N 24°03' E 118°29'0 2.5
2018-Jan-11 05:59N 24°03' E 118°29'5 9.7
2018-Jan-11 05:30N 24°05' E 118°25'611.6
2018-Jan-11 05:00N 24°09' E 118°20'612.7
2018-Jan-11 04:30N 24°14' E 118°16'713.3
2018-Jan-11 04:01N 24°19' E 118°11'612.7
2018-Jan-11 03:31N 24°24' E 118°07'510.6
2018-Jan-11 03:00N 24°26' E 118°01'0 0.5
2018-Jan-11 02:28N 24°27' E 118°01'0 0.0
2018-Jan-11 01:55N 24°27' E 118°01'0 0.0
2018-Jan-11 01:25N 24°27' E 118°01'0 0.0
2018-Jan-11 00:55N 24°27' E 118°01'0 0.1
2018-Jan-11 00:25N 24°27' E 118°01'0 0.1
2018-Jan-10 23:55N 24°27' E 118°01'0 0.1
2018-Jan-10 23:25N 24°27' E 118°01'0 0.1
2018-Jan-10 22:55N 24°27' E 118°01'0 0.0
2018-Jan-10 22:25N 24°27' E 118°01'0 0.0
2018-Jan-10 21:55N 24°27' E 118°01'0 0.0
2018-Jan-10 21:25N 24°27' E 118°01'0 0.1
2018-Jan-10 20:55N 24°27' E 118°01'0 0.1
2018-Jan-10 20:25N 24°27' E 118°01'0 0.0
2018-Jan-10 19:55N 24°27' E 118°01'0 0.0
2018-Jan-10 19:25N 24°27' E 118°01'0 0.0
2018-Jan-10 18:55N 24°27' E 118°01'0 0.1
2018-Jan-10 18:25N 24°27' E 118°01'0 0.0
2018-Jan-10 17:55N 24°27' E 118°01'0 0.0
2018-Jan-10 17:25N 24°27' E 118°01'0 0.0
2018-Jan-10 16:55N 24°27' E 118°01'0 0.1
2018-Jan-10 16:25N 24°27' E 118°01'0 0.1
2018-Jan-10 15:49N 24°27' E 118°01'0 0.0
2018-Jan-10 15:25N 24°27' E 118°01'0 0.0
2018-Jan-10 14:55N 24°27' E 118°01'0 0.0
2018-Jan-10 14:25N 24°27' E 118°01'0 0.1
2018-Jan-10 13:55N 24°27' E 118°01'0 0.1
2018-Jan-10 13:25N 24°27' E 118°01'0 0.0
2018-Jan-10 12:55N 24°27' E 118°01'0 0.1
2018-Jan-10 12:25N 24°27' E 118°01'0 0.0
2018-Jan-10 11:55N 24°27' E 118°01'0 0.0
2018-Jan-10 11:25N 24°27' E 118°01'0 0.1
2018-Jan-10 10:55N 24°27' E 118°01'0 0.0
2018-Jan-10 10:25N 24°27' E 118°01'0 0.0
2018-Jan-10 09:55N 24°27' E 118°01'0 0.0
2018-Jan-10 09:25N 24°27' E 118°01'0 0.0
2018-Jan-10 08:55N 24°27' E 118°01'0 0.1
2018-Jan-10 08:07N 24°27' E 118°01'0 0.3
2018-Jan-10 07:55N 24°27' E 118°01'0 0.0
2018-Jan-10 07:25N 24°27' E 118°01'0 0.1
2018-Jan-10 06:55N 24°27' E 118°01'0 0.1
2018-Jan-10 06:25N 24°27' E 118°01'0 0.0
2018-Jan-10 05:55N 24°27' E 118°01'0 0.0
2018-Jan-10 05:25N 24°27' E 118°01'0 0.1
2018-Jan-10 04:55N 24°27' E 118°01'0 0.1
2018-Jan-10 04:25N 24°27' E 118°01'0 0.0
2018-Jan-10 03:55N 24°27' E 118°01'0 0.1
2018-Jan-10 03:25N 24°27' E 118°01'0 0.0
2018-Jan-10 02:55N 24°27' E 118°01'0 0.0
2018-Jan-10 02:25N 24°27' E 118°01'0 0.1
2018-Jan-10 01:55N 24°27' E 118°01'0 0.1
2018-Jan-10 01:25N 24°27' E 118°01'0 0.0
2018-Jan-10 00:55N 24°27' E 118°01'0 0.0
2018-Jan-10 00:25N 24°27' E 118°01'0 0.1
2018-Jan-09 23:55N 24°27' E 118°01'0 0.0
2018-Jan-09 23:19N 24°27' E 118°01'0 0.1
2018-Jan-09 22:49N 24°27' E 118°01'0 0.0
2018-Jan-09 22:25N 24°27' E 118°01'0 0.0
2018-Jan-09 21:55N 24°27' E 118°01'0 0.0
2018-Jan-09 21:25N 24°27' E 118°01'0 0.0
2018-Jan-09 20:55N 24°27' E 118°01'0 0.1
2018-Jan-09 20:19N 24°27' E 118°01'0 0.0
2018-Jan-09 19:55N 24°27' E 118°01'0 0.0
2018-Jan-09 19:25N 24°27' E 118°01'0 0.0
2018-Jan-09 18:55N 24°27' E 118°01'0 0.1
2018-Jan-09 18:25N 24°27' E 118°01'0 0.0
2018-Jan-09 17:55N 24°27' E 118°01'0 0.1
2018-Jan-09 17:25N 24°27' E 118°01'0 0.0
2018-Jan-09 16:55N 24°27' E 118°01'0 0.1
2018-Jan-09 16:25N 24°27' E 118°01'0 0.0
2018-Jan-09 15:55N 24°27' E 118°01'0 0.1
2018-Jan-09 15:25N 24°27' E 118°01'0 0.1
2018-Jan-09 14:55N 24°27' E 118°01'0 0.1
2018-Jan-09 14:25N 24°27' E 118°01'0 0.1
2018-Jan-09 13:31N 24°27' E 118°01'0 0.5
2018-Jan-09 13:25N 24°27' E 118°01'0 0.1
2018-Jan-09 12:55N 24°27' E 118°01'0 0.0
2018-Jan-09 12:25N 24°27' E 118°01'0 0.1
2018-Jan-09 11:55N 24°27' E 118°01'0 0.0
2018-Jan-09 11:28N 24°27' E 118°01'0 0.1
2018-Jan-09 10:55N 24°27' E 118°01'0 0.0
2018-Jan-09 10:25N 24°27' E 118°01'0 0.0
2018-Jan-09 09:55N 24°27' E 118°01'0 0.0
2018-Jan-09 09:25N 24°27' E 118°01'0 0.1
2018-Jan-09 08:55N 24°27' E 118°01'0 0.0
2018-Jan-09 08:25N 24°27' E 118°01'0 0.0
2018-Jan-09 07:55N 24°27' E 118°01'0 0.0
2018-Jan-09 07:25N 24°27' E 118°01'0 0.0
2018-Jan-09 06:55N 24°27' E 118°01'0 0.0
2018-Jan-09 06:25N 24°27' E 118°01'0 0.0
2018-Jan-09 05:55N 24°27' E 118°01'0 0.0
2018-Jan-09 05:25N 24°27' E 118°01'0 0.0
2018-Jan-09 04:55N 24°27' E 118°01'0 0.0
2018-Jan-09 04:25N 24°27' E 118°01'0 0.0
2018-Jan-09 03:55N 24°27' E 118°01'0 0.0
2018-Jan-09 03:25N 24°27' E 118°01'0 0.0
2018-Jan-09 02:55N 24°27' E 118°01'0 0.1
2018-Jan-09 02:25N 24°27' E 118°01'0 0.1
2018-Jan-09 01:55N 24°27' E 118°01'0 0.0
2018-Jan-09 01:25N 24°27' E 118°01'0 0.0
2018-Jan-09 00:55N 24°27' E 118°01'0 0.1
2018-Jan-09 00:25N 24°27' E 118°01'0 0.1
2018-Jan-08 23:55N 24°27' E 118°01'0 0.1
2018-Jan-08 23:28N 24°27' E 118°01'0 0.0
2018-Jan-08 22:55N 24°27' E 118°01'0 0.1
2018-Jan-08 22:28N 24°27' E 118°01'0 0.0
2018-Jan-08 21:55N 24°27' E 118°01'0 0.1
2018-Jan-08 21:25N 24°27' E 118°01'0 0.1
2018-Jan-08 20:55N 24°27' E 118°01'0 0.1
2018-Jan-08 20:25N 24°27' E 118°01'0 0.1
2018-Jan-08 19:55N 24°27' E 118°01'0 0.1
2018-Jan-08 19:25N 24°27' E 118°01'0 0.0
2018-Jan-08 18:55N 24°27' E 118°01'0 0.1
2018-Jan-08 18:25N 24°27' E 118°01'0 0.0
2018-Jan-08 17:55N 24°27' E 118°01'0 0.0
2018-Jan-08 17:25N 24°27' E 118°01'0 0.0
2018-Jan-08 16:55N 24°27' E 118°01'0 0.1
2018-Jan-08 16:25N 24°27' E 118°01'0 0.0
2018-Jan-08 15:55N 24°27' E 118°01'0 0.1
2018-Jan-08 15:25N 24°27' E 118°01'0 0.0
2018-Jan-08 14:55N 24°27' E 118°01'0 0.0
2018-Jan-08 14:25N 24°27' E 118°01'0 0.1
2018-Jan-08 13:55N 24°27' E 118°01'0 0.0
2018-Jan-08 13:25N 24°27' E 118°01'0 0.0
2018-Jan-08 12:55N 24°27' E 118°01'0 0.1
2018-Jan-08 12:25N 24°27' E 118°01'0 0.1
2018-Jan-08 11:55N 24°27' E 118°01'0 0.1
2018-Jan-08 11:25N 24°27' E 118°01'0 0.0
2018-Jan-08 10:55N 24°27' E 118°01'0 0.1
2018-Jan-08 10:25N 24°27' E 118°01'0 0.1
2018-Jan-08 09:55N 24°27' E 118°01'0 0.1
2018-Jan-08 09:26N 24°27' E 118°01'1 2.0
2018-Jan-08 09:00N 24°26' E 118°02'4 7.5
2018-Jan-08 08:31N 24°24' E 118°06'4 8.2
2018-Jan-08 08:01N 24°22' E 118°09'3 5.3
2018-Jan-08 07:31N 24°20' E 118°11'4 7.3
2018-Jan-08 07:00N 24°17' E 118°14'3 5.3
2018-Jan-08 06:31N 24°15' E 118°15'4 7.2
2018-Jan-08 06:00N 24°11' E 118°15'2 3.7
2018-Jan-08 05:25N 24°09' E 118°16'0 0.0
2018-Jan-08 04:58N 24°09' E 118°16'0 0.1
2018-Jan-08 04:28N 24°09' E 118°16'0 0.0
2018-Jan-08 03:58N 24°09' E 118°16'0 0.1
2018-Jan-08 03:28N 24°09' E 118°16'0 0.1
2018-Jan-08 02:58N 24°09' E 118°16'0 0.1
2018-Jan-08 02:28N 24°09' E 118°16'0 0.1
2018-Jan-08 01:58N 24°09' E 118°16'0 0.1
2018-Jan-08 01:28N 24°09' E 118°16'0 0.1
2018-Jan-08 00:55N 24°09' E 118°16'0 0.0
2018-Jan-08 00:28N 24°09' E 118°16'0 0.2
2018-Jan-07 23:58N 24°09' E 118°16'1 2.8
2018-Jan-07 23:31N 24°10' E 118°15'1 1.3
2018-Jan-07 23:00N 24°11' E 118°16'1 2.8
2018-Jan-07 22:29N 24°09' E 118°16'0 0.1
2018-Jan-07 21:59N 24°09' E 118°16'0 0.0
2018-Jan-07 21:29N 24°09' E 118°16'0 0.2
2018-Jan-07 20:59N 24°09' E 118°16'0 0.7
2018-Jan-07 20:30N 24°10' E 118°16'1 2.2
2018-Jan-07 20:00N 24°10' E 118°17'510.1
2018-Jan-07 19:30N 24°05' E 118°19'611.5
2018-Jan-07 19:00N 23°60' E 118°18'  

Dump ship's entire track history